Anticosti: Past 24 Hour Conditions

 

St. John's Int'l Airport

11:30 PM NDT 28 July 2014
This table is a summary of hourly weather conditions for the past 24 hours.
Date / Time
(NDT)
Wind(knots) Conditions Visibility(km) Pressure(kPa) Air tempC) Relative humidity(%) Dew pointC) Humidex
28 July 2014
23:30 SSE 8 Mainly Clear 24 102.2 15 85 12 *
22:30 SSE 8 Mainly Clear 24 102.2 16 80 12 *
21:30 S 10 Partly Cloudy 24 102.3 17 75 12 *
20:30 S 10 Partly Cloudy 24 102.2 18 70 13 *
19:30 S 12 Mainly Sunny 24 102.2 21 57 12 *
18:30 SSE 13 Mainly Sunny 24 102.2 23 46 11 *
17:30 SE 10 Mainly Sunny 24 102.2 23 45 11 25
16:30 E 12 Mainly Sunny 24 102.2 23 49 12 25
15:30 SE 10 Mainly Sunny 24 102.2 24 N/A N/A *
14:30 E 10 Partly Cloudy 24 102.2 24 45 12 26
13:30 E 8 Partly Cloudy 24 102.3 24 48 12 26
12:30 E 8 Mostly Cloudy 24 102.3 22 56 13 25
11:30 W 5 Mostly Cloudy 24 102.3 23 59 14 26
10:30 W 5 Partly Cloudy 24 102.2 23 62 15 27
9:30 W 6 Mainly Sunny 24 102.3 23 65 16 27
8:30 W 10 Mainly Sunny 24 102.3 19 78 15 *
7:30 W 7 Mainly Sunny 24 102.2 18 79 15 *
6:30 WSW 8 Sunny 19 102.2 16 85 14 *
5:30 W 7 Mainly Clear 19 102.2 15 88 13 *
4:30 WSW 9 Partly Cloudy 19 102.1 16 90 14 *
3:30 W 9 Mostly Cloudy 19 102.1 16 88 14 *
2:30 WSW 11 Mostly Cloudy 19 102.1 17 84 15 *
1:30 WSW 10 Cloudy 16 102.1 18 79 15 *
0:30 WSW 10 Mostly Cloudy 16 102.1 19 76 15 *
27 July 2014
23:30 WSW 9 Mostly Cloudy 16 102.1 19 77 15 *
 
Map of Atlantic - Newfoundland marine weather areas Southwestern Grand Banks - 44138 Banquereau - 44139 Tail of the Bank - 44140 Nickerson Bank - 44251 Northeast Burgeo Bank - 44255 Blanc-Sablon Airport Cap Whittle Chevery Natashquan Airport Heath Point Miscou Island Grand Étang Ingonish Beach North Mountain St.Paul Island J.A. Douglas McCurdy Sydney Airport Charlottetown Airport East Point North Cape Argentia Bonavista Burgeo Cape Race Corner Brook Daniel's Harbour Englee Ferolle Point La Scie Port aux Basques Rocky Harbour Sagona Island St. Anthony Airport St. John's Int'l Airport St. Lawrence Stephenville Airport Twillingate Winterland Wreckhouse Cartwright Airport Mary's Harbour Grates Cove Pool's Island Marticot Island Long Pond Îles de la Madeleine Airport
Legend: buoyBuoy land stationLand Station